Capitol Logistics 364


KAFW
Fort Worth Alliance Airport
Fort Worth, Texas, US
KRIV
March Air Reserve Base
Riverside, California, US

Activity Log

Date Flight Route Aircraft Duration
06/19/2019 CPX364 KAFW SWABR5 BRHMA CME J166 TCS J65 KOFFA J169 BLH TRM ARKOE1 KRIV B763 2h 43m
01/30/2019 CPX364 SWABR5 BRHMA CME J166 TCS J65 KOFFA J169 BLH TRM ARKOE1 B763 2h 50m

Route Details

Aircraft Information
Primary: Boeing 767-300BDSF
Backup: Not Available
Route Data
Distance: 1001nm
Sched. Duration: 3h 00m
Avg. Duration: 2h 46m (-54m)
Times Flown: 2
Recm'd Route: SWABR5 DOSXX INK V94 TFD J169 TRM ARKOE1
Planned Altitude: 34,000ft
Origin Wx: KAFW 262353Z 34014KT 10SM CLR 08/M08 A3038 RMK AO2 SLP296 T00781078 10100 20067 56004
Dest. Wx: KRIV 262358Z AUTO 10007KT 10SM CLR 23/M08 A3021 RMK AO2 SLPNO T02291080 10234 20226
Notes:

Financial History
Total Freight: 180,370lbs
Average Load: 90,185lbs/flt
Fuel Used: 59,568lbs
Avg. Fuel Used: 29,784lbs/flt
Fuel Expense: $48,250
Avg. Fuel Expense: $24,125
Avg. Fuel Cost: $0.81/lbs
Total Gross Income: $236,285
Pilot Pay: $378
Total Expenses: $25,623
Total Revenue: $161,113
Average Revenue: $118,142.35